Accueil
METAR-TAF:

METAR-TAF

Aéroports :

Aéroport de Bucarest-Henri-Coandă

Bucarest, Roumanie

latitude: 44-33N, longitude: 026-06E, altitude: 95 m

Observation

Le bulletin a été fait il y a 14 minutes, à 13:30 UTC
Vent 9 kt de est
Température 9°C
Humidité 57%
Pression 1018 hPa
Visibilité 10 km ou plus
Quelques nuages à une hauteur de 2000 ft
Quelques nuages à une hauteur de 4000 ft, Cumulus congestus.

METAR: LROP 291330Z 09009KT 9999 FEW020 FEW040TCU 09/01 Q1018 NOSIG

Heure: 15:44 (13:44 UTC)

Prévision

Le bulletin a été fait il y a 2 heures et 44 minutes, à 11:00 UTC
Prévision valable du 29 à 12 UTC au 01 à 12 UTC
Vent 7 kt de sud-ouest
Visibilité 10 km ou plus
Nuages épars à une hauteur de 4000 ft
Probabilité 30% :
Temporairement
du 01 à 01 UTC au 01 à 06 UTC
Visibilité: 3000 m
brume

TAF: LROP 291100Z 2912/0112 22007KT 9999 SCT040 PROB30 TEMPO 0101/0106 3000 BR

Observations et prévisions météorologiques de plus de 4000 aéroports (messages METAR et TAF).

Les stations disponibles sont représentées par des disques jaunes et rouges sur la carte.

Passer la souris dessus pour voir le nom de la station.

Cliquer dessus pour voir les observations et prévisions météorologiques.

Pour changer de carte: cliquez sur les boutons verts avec une croix noire pour zoomer, sur le bouton vert avec un tiret pour effectuer un zoom arrière, ou sur les flèches vertes pour les cartes adjacentes.


METAR-TAF: